sensor_id;sensor_type;location;lat;lon;timestamp;P1;durP1;ratioP1;P2;durP2;ratioP2
75858;SDS011;64504;51.308;8.620;2023-04-24T00:01:12;0.30;;;0.30;;
75858;SDS011;64504;51.308;8.620;2023-04-24T00:03:38;1.20;;;1.20;;
75858;SDS011;64504;51.308;8.620;2023-04-24T00:06:04;0.63;;;0.63;;
75858;SDS011;64504;51.308;8.620;2023-04-24T00:08:36;1.17;;;0.75;;
75858;SDS011;64504;51.308;8.620;2023-04-24T00:11:02;0.85;;;0.75;;
75858;SDS011;64504;51.308;8.620;2023-04-24T00:13:28;0.70;;;0.70;;
75858;SDS011;64504;51.308;8.620;2023-04-24T00:15:54;1.10;;;1.02;;
75858;SDS011;64504;51.308;8.620;2023-04-24T00:18:21;0.93;;;0.73;;
75858;SDS011;64504;51.308;8.620;2023-04-24T00:20:46;0.65;;;0.52;;
75858;SDS011;64504;51.308;8.620;2023-04-24T00:23:12;0.65;;;0.45;;
75858;SDS011;64504;51.308;8.620;2023-04-24T00:25:39;0.65;;;0.65;;
75858;SDS011;64504;51.308;8.620;2023-04-24T00:28:05;0.60;;;0.60;;
75858;SDS011;64504;51.308;8.620;2023-04-24T00:30:32;0.63;;;0.60;;
75858;SDS011;64504;51.308;8.620;2023-04-24T00:32:58;0.60;;;0.60;;
75858;SDS011;64504;51.308;8.620;2023-04-24T00:35:23;0.57;;;0.57;;
75858;SDS011;64504;51.308;8.620;2023-04-24T00:37:50;1.67;;;1.10;;
75858;SDS011;64504;51.308;8.620;2023-04-24T00:40:17;1.15;;;1.05;;
75858;SDS011;64504;51.308;8.620;2023-04-24T00:42:43;0.93;;;0.88;;
75858;SDS011;64504;51.308;8.620;2023-04-24T00:45:09;0.50;;;0.50;;
75858;SDS011;64504;51.308;8.620;2023-04-24T00:47:35;0.30;;;0.30;;
75858;SDS011;64504;51.308;8.620;2023-04-24T00:50:01;0.80;;;0.80;;
75858;SDS011;64504;51.308;8.620;2023-04-24T00:52:28;0.40;;;0.40;;
75858;SDS011;64504;51.308;8.620;2023-04-24T00:54:56;1.88;;;0.82;;
75858;SDS011;64504;51.308;8.620;2023-04-24T00:57:21;1.25;;;0.93;;
75858;SDS011;64504;51.308;8.620;2023-04-24T00:59:48;0.60;;;0.50;;
75858;SDS011;64504;51.308;8.620;2023-04-24T01:02:15;2.83;;;1.10;;
75858;SDS011;64504;51.308;8.620;2023-04-24T01:04:41;0.60;;;0.60;;
75858;SDS011;64504;51.308;8.620;2023-04-24T01:07:06;0.40;;;0.40;;
75858;SDS011;64504;51.308;8.620;2023-04-24T01:09:37;0.60;;;0.60;;
75858;SDS011;64504;51.308;8.620;2023-04-24T01:12:03;0.77;;;0.77;;
75858;SDS011;64504;51.308;8.620;2023-04-24T01:14:29;1.77;;;1.27;;
75858;SDS011;64504;51.308;8.620;2023-04-24T01:16:55;0.60;;;0.60;;
75858;SDS011;64504;51.308;8.620;2023-04-24T01:19:22;0.80;;;0.80;;
75858;SDS011;64504;51.308;8.620;2023-04-24T01:21:48;1.08;;;0.73;;
75858;SDS011;64504;51.308;8.620;2023-04-24T01:24:16;0.75;;;0.75;;
75858;SDS011;64504;51.308;8.620;2023-04-24T01:26:43;0.82;;;0.77;;
75858;SDS011;64504;51.308;8.620;2023-04-24T01:29:09;0.73;;;0.73;;
75858;SDS011;64504;51.308;8.620;2023-04-24T01:31:36;1.92;;;0.85;;
75858;SDS011;64504;51.308;8.620;2023-04-24T01:34:02;1.50;;;0.82;;
75858;SDS011;64504;51.308;8.620;2023-04-24T01:36:27;0.45;;;0.32;;
75858;SDS011;64504;51.308;8.620;2023-04-24T01:38:54;9.93;;;0.98;;
75858;SDS011;64504;51.308;8.620;2023-04-24T01:41:20;1.02;;;0.90;;
75858;SDS011;64504;51.308;8.620;2023-04-24T01:43:46;0.90;;;0.90;;
75858;SDS011;64504;51.308;8.620;2023-04-24T01:46:11;2.03;;;1.23;;
75858;SDS011;64504;51.308;8.620;2023-04-24T01:48:37;0.55;;;0.55;;
75858;SDS011;64504;51.308;8.620;2023-04-24T01:51:04;1.38;;;0.90;;
75858;SDS011;64504;51.308;8.620;2023-04-24T01:53:30;1.17;;;1.10;;
75858;SDS011;64504;51.308;8.620;2023-04-24T01:55:55;1.50;;;1.05;;
75858;SDS011;64504;51.308;8.620;2023-04-24T01:58:22;1.05;;;0.80;;
75858;SDS011;64504;51.308;8.620;2023-04-24T02:00:48;1.05;;;0.95;;
75858;SDS011;64504;51.308;8.620;2023-04-24T02:03:13;2.95;;;0.70;;
75858;SDS011;64504;51.308;8.620;2023-04-24T02:05:40;0.70;;;0.70;;
75858;SDS011;64504;51.308;8.620;2023-04-24T02:08:05;1.15;;;1.05;;
75858;SDS011;64504;51.308;8.620;2023-04-24T02:10:31;0.77;;;0.77;;
75858;SDS011;64504;51.308;8.620;2023-04-24T02:12:56;0.95;;;0.65;;
75858;SDS011;64504;51.308;8.620;2023-04-24T02:15:21;0.82;;;0.82;;
75858;SDS011;64504;51.308;8.620;2023-04-24T02:17:48;0.77;;;0.77;;
75858;SDS011;64504;51.308;8.620;2023-04-24T02:20:13;2.67;;;0.50;;
75858;SDS011;64504;51.308;8.620;2023-04-24T02:22:39;0.57;;;0.55;;
75858;SDS011;64504;51.308;8.620;2023-04-24T02:25:04;0.80;;;0.80;;
75858;SDS011;64504;51.308;8.620;2023-04-24T02:27:30;8.73;;;0.85;;
75858;SDS011;64504;51.308;8.620;2023-04-24T02:29:56;1.05;;;0.95;;
75858;SDS011;64504;51.308;8.620;2023-04-24T02:32:21;0.82;;;0.82;;
75858;SDS011;64504;51.308;8.620;2023-04-24T02:34:47;1.15;;;0.85;;
75858;SDS011;64504;51.308;8.620;2023-04-24T02:37:12;2.53;;;1.00;;
75858;SDS011;64504;51.308;8.620;2023-04-24T02:39:38;0.52;;;0.50;;
75858;SDS011;64504;51.308;8.620;2023-04-24T02:42:03;0.40;;;0.40;;
75858;SDS011;64504;51.308;8.620;2023-04-24T02:44:28;0.75;;;0.70;;
75858;SDS011;64504;51.308;8.620;2023-04-24T02:46:54;1.38;;;1.27;;
75858;SDS011;64504;51.308;8.620;2023-04-24T02:49:19;1.00;;;0.50;;
75858;SDS011;64504;51.308;8.620;2023-04-24T02:51:45;0.70;;;0.70;;
75858;SDS011;64504;51.308;8.620;2023-04-24T02:54:11;0.55;;;0.55;;
75858;SDS011;64504;51.308;8.620;2023-04-24T02:56:37;0.77;;;0.77;;
75858;SDS011;64504;51.308;8.620;2023-04-24T02:59:02;0.73;;;0.73;;
75858;SDS011;64504;51.308;8.620;2023-04-24T03:01:28;0.38;;;0.38;;
75858;SDS011;64504;51.308;8.620;2023-04-24T03:03:54;0.38;;;0.38;;
75858;SDS011;64504;51.308;8.620;2023-04-24T03:06:19;0.60;;;0.60;;
75858;SDS011;64504;51.308;8.620;2023-04-24T03:08:46;0.30;;;0.30;;
75858;SDS011;64504;51.308;8.620;2023-04-24T03:11:11;0.43;;;0.43;;
75858;SDS011;64504;51.308;8.620;2023-04-24T03:13:37;0.70;;;0.50;;
75858;SDS011;64504;51.308;8.620;2023-04-24T03:16:03;0.73;;;0.73;;
75858;SDS011;64504;51.308;8.620;2023-04-24T03:18:29;0.80;;;0.80;;
75858;SDS011;64504;51.308;8.620;2023-04-24T03:20:55;0.60;;;0.60;;
75858;SDS011;64504;51.308;8.620;2023-04-24T03:23:20;0.73;;;0.70;;
75858;SDS011;64504;51.308;8.620;2023-04-24T03:25:47;1.90;;;1.05;;
75858;SDS011;64504;51.308;8.620;2023-04-24T03:28:13;1.58;;;1.30;;
75858;SDS011;64504;51.308;8.620;2023-04-24T03:30:39;0.70;;;0.57;;
75858;SDS011;64504;51.308;8.620;2023-04-24T03:33:04;1.90;;;1.42;;
75858;SDS011;64504;51.308;8.620;2023-04-24T03:35:30;0.90;;;0.90;;
75858;SDS011;64504;51.308;8.620;2023-04-24T03:37:56;2.15;;;1.15;;
75858;SDS011;64504;51.308;8.620;2023-04-24T03:40:21;0.80;;;0.80;;
75858;SDS011;64504;51.308;8.620;2023-04-24T03:42:47;0.90;;;0.80;;
75858;SDS011;64504;51.308;8.620;2023-04-24T03:45:12;1.08;;;1.08;;
75858;SDS011;64504;51.308;8.620;2023-04-24T03:47:38;1.30;;;1.20;;
75858;SDS011;64504;51.308;8.620;2023-04-24T03:50:03;1.17;;;1.08;;
75858;SDS011;64504;51.308;8.620;2023-04-24T03:52:29;1.55;;;0.85;;
75858;SDS011;64504;51.308;8.620;2023-04-24T03:54:55;2.10;;;1.20;;
75858;SDS011;64504;51.308;8.620;2023-04-24T03:57:20;2.30;;;1.52;;
75858;SDS011;64504;51.308;8.620;2023-04-24T03:59:47;0.75;;;0.75;;
75858;SDS011;64504;51.308;8.620;2023-04-24T04:02:13;2.30;;;0.98;;
75858;SDS011;64504;51.308;8.620;2023-04-24T04:04:39;0.90;;;0.90;;
75858;SDS011;64504;51.308;8.620;2023-04-24T04:07:05;2.83;;;1.20;;
75858;SDS011;64504;51.308;8.620;2023-04-24T04:09:31;1.17;;;0.95;;
75858;SDS011;64504;51.308;8.620;2023-04-24T04:11:58;0.65;;;0.65;;
75858;SDS011;64504;51.308;8.620;2023-04-24T04:14:25;8.50;;;1.02;;
75858;SDS011;64504;51.308;8.620;2023-04-24T04:16:51;1.55;;;1.45;;
75858;SDS011;64504;51.308;8.620;2023-04-24T04:19:17;1.00;;;1.00;;
75858;SDS011;64504;51.308;8.620;2023-04-24T04:21:42;2.55;;;1.67;;
75858;SDS011;64504;51.308;8.620;2023-04-24T04:24:07;2.80;;;1.73;;
75858;SDS011;64504;51.308;8.620;2023-04-24T04:26:34;2.08;;;1.67;;
75858;SDS011;64504;51.308;8.620;2023-04-24T04:29:00;2.10;;;1.92;;
75858;SDS011;64504;51.308;8.620;2023-04-24T04:31:26;3.67;;;3.25;;
75858;SDS011;64504;51.308;8.620;2023-04-24T04:33:51;3.63;;;2.72;;
75858;SDS011;64504;51.308;8.620;2023-04-24T04:36:16;3.45;;;3.15;;
75858;SDS011;64504;51.308;8.620;2023-04-24T04:38:43;5.93;;;4.13;;
75858;SDS011;64504;51.308;8.620;2023-04-24T04:41:10;9.70;;;4.53;;
75858;SDS011;64504;51.308;8.620;2023-04-24T04:43:35;4.97;;;3.58;;
75858;SDS011;64504;51.308;8.620;2023-04-24T04:46:01;6.55;;;4.70;;
75858;SDS011;64504;51.308;8.620;2023-04-24T04:48:28;6.13;;;4.05;;
75858;SDS011;64504;51.308;8.620;2023-04-24T04:50:56;4.47;;;3.63;;
75858;SDS011;64504;51.308;8.620;2023-04-24T04:53:22;4.45;;;4.03;;
75858;SDS011;64504;51.308;8.620;2023-04-24T04:55:48;3.85;;;3.47;;
75858;SDS011;64504;51.308;8.620;2023-04-24T04:58:13;5.15;;;4.40;;
75858;SDS011;64504;51.308;8.620;2023-04-24T05:00:40;10.32;;;4.28;;
75858;SDS011;64504;51.308;8.620;2023-04-24T05:03:07;4.18;;;3.78;;
75858;SDS011;64504;51.308;8.620;2023-04-24T05:05:33;4.47;;;4.03;;
75858;SDS011;64504;51.308;8.620;2023-04-24T05:08:02;4.88;;;4.47;;
75858;SDS011;64504;51.308;8.620;2023-04-24T05:10:27;4.55;;;4.13;;
75858;SDS011;64504;51.308;8.620;2023-04-24T05:12:53;4.28;;;3.88;;
75858;SDS011;64504;51.308;8.620;2023-04-24T05:15:18;3.70;;;3.30;;
75858;SDS011;64504;51.308;8.620;2023-04-24T05:17:44;4.25;;;3.83;;
75858;SDS011;64504;51.308;8.620;2023-04-24T05:20:09;10.75;;;3.83;;
75858;SDS011;64504;51.308;8.620;2023-04-24T05:22:35;4.47;;;3.80;;
75858;SDS011;64504;51.308;8.620;2023-04-24T05:25:01;4.75;;;3.78;;
75858;SDS011;64504;51.308;8.620;2023-04-24T05:27:27;4.90;;;3.08;;
75858;SDS011;64504;51.308;8.620;2023-04-24T05:29:53;3.10;;;2.67;;
75858;SDS011;64504;51.308;8.620;2023-04-24T05:32:19;2.88;;;2.53;;
75858;SDS011;64504;51.308;8.620;2023-04-24T05:34:44;4.93;;;4.43;;
75858;SDS011;64504;51.308;8.620;2023-04-24T05:37:10;5.93;;;4.78;;
75858;SDS011;64504;51.308;8.620;2023-04-24T05:39:35;8.07;;;6.32;;
75858;SDS011;64504;51.308;8.620;2023-04-24T05:42:01;6.45;;;5.85;;
75858;SDS011;64504;51.308;8.620;2023-04-24T05:44:28;15.75;;;7.88;;
75858;SDS011;64504;51.308;8.620;2023-04-24T05:46:53;7.82;;;7.03;;
75858;SDS011;64504;51.308;8.620;2023-04-24T05:49:21;8.15;;;7.35;;
75858;SDS011;64504;51.308;8.620;2023-04-24T05:51:46;11.15;;;8.20;;
75858;SDS011;64504;51.308;8.620;2023-04-24T05:54:12;10.30;;;8.30;;
75858;SDS011;64504;51.308;8.620;2023-04-24T05:56:37;9.20;;;8.00;;
75858;SDS011;64504;51.308;8.620;2023-04-24T05:59:04;10.15;;;8.93;;
75858;SDS011;64504;51.308;8.620;2023-04-24T06:01:30;12.35;;;9.95;;
75858;SDS011;64504;51.308;8.620;2023-04-24T06:03:56;12.52;;;8.80;;
75858;SDS011;64504;51.308;8.620;2023-04-24T06:06:23;9.48;;;8.68;;
75858;SDS011;64504;51.308;8.620;2023-04-24T06:08:48;7.70;;;7.00;;
75858;SDS011;64504;51.308;8.620;2023-04-24T06:11:14;9.75;;;8.77;;
75858;SDS011;64504;51.308;8.620;2023-04-24T06:13:39;17.05;;;8.18;;
75858;SDS011;64504;51.308;8.620;2023-04-24T06:16:05;9.15;;;6.60;;
75858;SDS011;64504;51.308;8.620;2023-04-24T06:18:30;7.75;;;6.97;;
75858;SDS011;64504;51.308;8.620;2023-04-24T06:20:56;8.10;;;7.32;;
75858;SDS011;64504;51.308;8.620;2023-04-24T06:23:21;10.48;;;7.18;;
75858;SDS011;64504;51.308;8.620;2023-04-24T06:25:47;9.10;;;8.23;;
75858;SDS011;64504;51.308;8.620;2023-04-24T06:28:12;7.78;;;7.00;;
75858;SDS011;64504;51.308;8.620;2023-04-24T06:30:40;8.55;;;6.93;;
75858;SDS011;64504;51.308;8.620;2023-04-24T06:33:06;7.95;;;7.13;;
75858;SDS011;64504;51.308;8.620;2023-04-24T06:35:31;8.80;;;7.97;;
75858;SDS011;64504;51.308;8.620;2023-04-24T06:37:57;11.35;;;5.68;;
75858;SDS011;64504;51.308;8.620;2023-04-24T06:40:22;9.73;;;8.18;;
75858;SDS011;64504;51.308;8.620;2023-04-24T06:42:47;15.98;;;7.35;;
75858;SDS011;64504;51.308;8.620;2023-04-24T06:45:13;9.48;;;7.45;;
75858;SDS011;64504;51.308;8.620;2023-04-24T06:47:39;7.22;;;6.50;;
75858;SDS011;64504;51.308;8.620;2023-04-24T06:50:05;6.10;;;5.47;;
75858;SDS011;64504;51.308;8.620;2023-04-24T06:52:31;8.05;;;7.28;;
75858;SDS011;64504;51.308;8.620;2023-04-24T06:55:02;7.32;;;6.65;;
75858;SDS011;64504;51.308;8.620;2023-04-24T06:57:30;12.60;;;5.90;;
75858;SDS011;64504;51.308;8.620;2023-04-24T06:59:57;6.97;;;6.38;;
75858;SDS011;64504;51.308;8.620;2023-04-24T07:02:23;6.50;;;5.32;;
75858;SDS011;64504;51.308;8.620;2023-04-24T07:04:49;5.80;;;5.20;;
75858;SDS011;64504;51.308;8.620;2023-04-24T07:07:14;6.50;;;5.85;;
75858;SDS011;64504;51.308;8.620;2023-04-24T07:09:40;8.80;;;4.82;;
75858;SDS011;64504;51.308;8.620;2023-04-24T07:12:08;6.22;;;5.63;;
75858;SDS011;64504;51.308;8.620;2023-04-24T07:14:37;4.97;;;4.55;;
75858;SDS011;64504;51.308;8.620;2023-04-24T07:17:03;6.97;;;5.18;;
75858;SDS011;64504;51.308;8.620;2023-04-24T07:19:29;5.30;;;4.80;;
75858;SDS011;64504;51.308;8.620;2023-04-24T07:21:55;6.22;;;5.63;;
75858;SDS011;64504;51.308;8.620;2023-04-24T07:24:23;6.72;;;5.45;;
75858;SDS011;64504;51.308;8.620;2023-04-24T07:26:50;5.38;;;4.28;;
75858;SDS011;64504;51.308;8.620;2023-04-24T07:29:16;8.77;;;5.20;;
75858;SDS011;64504;51.308;8.620;2023-04-24T07:31:42;5.28;;;4.78;;
75858;SDS011;64504;51.308;8.620;2023-04-24T07:34:07;4.65;;;4.25;;
75858;SDS011;64504;51.308;8.620;2023-04-24T07:36:33;6.13;;;5.10;;
75858;SDS011;64504;51.308;8.620;2023-04-24T07:38:58;5.75;;;4.75;;
75858;SDS011;64504;51.308;8.620;2023-04-24T07:41:24;4.55;;;4.15;;
75858;SDS011;64504;51.308;8.620;2023-04-24T07:43:50;5.72;;;5.15;;
75858;SDS011;64504;51.308;8.620;2023-04-24T07:46:16;5.28;;;4.88;;
75858;SDS011;64504;51.308;8.620;2023-04-24T07:48:41;5.80;;;4.57;;
75858;SDS011;64504;51.308;8.620;2023-04-24T07:51:07;6.80;;;5.65;;
75858;SDS011;64504;51.308;8.620;2023-04-24T07:53:35;6.45;;;4.55;;
75858;SDS011;64504;51.308;8.620;2023-04-24T07:56:00;6.13;;;5.53;;
75858;SDS011;64504;51.308;8.620;2023-04-24T07:58:27;6.60;;;4.55;;
75858;SDS011;64504;51.308;8.620;2023-04-24T08:00:52;4.63;;;3.90;;
75858;SDS011;64504;51.308;8.620;2023-04-24T08:03:18;3.85;;;3.45;;
75858;SDS011;64504;51.308;8.620;2023-04-24T08:05:45;4.88;;;3.95;;
75858;SDS011;64504;51.308;8.620;2023-04-24T08:08:10;5.13;;;4.63;;
75858;SDS011;64504;51.308;8.620;2023-04-24T08:10:36;7.07;;;5.63;;
75858;SDS011;64504;51.308;8.620;2023-04-24T08:13:01;5.53;;;3.83;;
75858;SDS011;64504;51.308;8.620;2023-04-24T08:15:27;6.20;;;5.60;;
75858;SDS011;64504;51.308;8.620;2023-04-24T08:17:53;6.50;;;4.30;;
75858;SDS011;64504;51.308;8.620;2023-04-24T08:20:18;5.07;;;4.57;;
75858;SDS011;64504;51.308;8.620;2023-04-24T08:22:44;8.18;;;5.45;;
75858;SDS011;64504;51.308;8.620;2023-04-24T08:25:12;5.47;;;4.20;;
75858;SDS011;64504;51.308;8.620;2023-04-24T08:27:38;5.63;;;5.05;;
75858;SDS011;64504;51.308;8.620;2023-04-24T08:30:04;5.78;;;5.10;;
75858;SDS011;64504;51.308;8.620;2023-04-24T08:32:31;4.10;;;3.70;;
75858;SDS011;64504;51.308;8.620;2023-04-24T08:34:56;4.95;;;4.45;;
75858;SDS011;64504;51.308;8.620;2023-04-24T08:37:26;7.22;;;4.88;;
75858;SDS011;64504;51.308;8.620;2023-04-24T08:39:52;5.63;;;3.45;;
75858;SDS011;64504;51.308;8.620;2023-04-24T08:42:18;7.45;;;5.00;;
75858;SDS011;64504;51.308;8.620;2023-04-24T08:44:44;9.15;;;4.53;;
75858;SDS011;64504;51.308;8.620;2023-04-24T08:47:10;4.10;;;3.70;;
75858;SDS011;64504;51.308;8.620;2023-04-24T08:49:37;4.90;;;4.40;;
75858;SDS011;64504;51.308;8.620;2023-04-24T08:52:03;4.63;;;3.75;;
75858;SDS011;64504;51.308;8.620;2023-04-24T08:54:29;3.53;;;2.95;;
75858;SDS011;64504;51.308;8.620;2023-04-24T08:56:58;3.30;;;3.08;;
75858;SDS011;64504;51.308;8.620;2023-04-24T08:59:30;4.10;;;3.70;;
75858;SDS011;64504;51.308;8.620;2023-04-24T09:01:56;3.42;;;2.60;;
75858;SDS011;64504;51.308;8.620;2023-04-24T09:04:23;3.92;;;2.17;;
75858;SDS011;64504;51.308;8.620;2023-04-24T09:06:50;3.33;;;2.47;;
75858;SDS011;64504;51.308;8.620;2023-04-24T09:09:16;3.13;;;2.17;;
75858;SDS011;64504;51.308;8.620;2023-04-24T09:11:44;2.22;;;2.03;;
75858;SDS011;64504;51.308;8.620;2023-04-24T09:14:10;2.10;;;1.85;;
75858;SDS011;64504;51.308;8.620;2023-04-24T09:16:37;2.45;;;1.35;;
75858;SDS011;64504;51.308;8.620;2023-04-24T09:19:04;2.65;;;1.95;;
75858;SDS011;64504;51.308;8.620;2023-04-24T09:21:33;1.92;;;1.55;;
75858;SDS011;64504;51.308;8.620;2023-04-24T09:24:03;2.05;;;1.30;;
75858;SDS011;64504;51.308;8.620;2023-04-24T09:26:31;1.73;;;1.55;;
75858;SDS011;64504;51.308;8.620;2023-04-24T09:28:58;1.75;;;1.65;;
75858;SDS011;64504;51.308;8.620;2023-04-24T09:31:23;0.60;;;0.60;;
75858;SDS011;64504;51.308;8.620;2023-04-24T09:34:03;1.05;;;1.05;;
75858;SDS011;64504;51.308;8.620;2023-04-24T09:36:33;1.20;;;1.00;;
75858;SDS011;64504;51.308;8.620;2023-04-24T09:39:02;1.10;;;1.00;;
75858;SDS011;64504;51.308;8.620;2023-04-24T09:41:31;1.15;;;0.95;;
75858;SDS011;64504;51.308;8.620;2023-04-24T09:43:57;0.82;;;0.82;;
75858;SDS011;64504;51.308;8.620;2023-04-24T09:46:36;0.57;;;0.57;;
75858;SDS011;64504;51.308;8.620;2023-04-24T09:49:34;1.15;;;1.05;;
75858;SDS011;64504;51.308;8.620;2023-04-24T09:54:32;0.68;;;0.65;;
75858;SDS011;64504;51.308;8.620;2023-04-24T09:56:58;0.63;;;0.63;;
75858;SDS011;64504;51.308;8.620;2023-04-24T09:59:26;0.65;;;0.65;;
75858;SDS011;64504;51.308;8.620;2023-04-24T10:01:53;0.47;;;0.47;;
75858;SDS011;64504;51.308;8.620;2023-04-24T10:04:22;0.57;;;0.57;;
75858;SDS011;64504;51.308;8.620;2023-04-24T10:06:50;0.65;;;0.30;;
75858;SDS011;64504;51.308;8.620;2023-04-24T10:09:17;0.50;;;0.50;;
75858;SDS011;64504;51.308;8.620;2023-04-24T10:11:48;0.57;;;0.45;;
75858;SDS011;64504;51.308;8.620;2023-04-24T10:14:18;0.30;;;0.30;;
75858;SDS011;64504;51.308;8.620;2023-04-24T10:19:20;0.20;;;0.20;;
75858;SDS011;64504;51.308;8.620;2023-04-24T10:21:46;0.35;;;0.35;;
75858;SDS011;64504;51.308;8.620;2023-04-24T10:24:15;0.15;;;0.15;;
75858;SDS011;64504;51.308;8.620;2023-04-24T10:26:43;0.10;;;0.10;;
75858;SDS011;64504;51.308;8.620;2023-04-24T10:29:11;0.52;;;0.40;;
75858;SDS011;64504;51.308;8.620;2023-04-24T10:31:39;0.30;;;0.30;;
75858;SDS011;64504;51.308;8.620;2023-04-24T10:34:05;0.40;;;0.32;;
75858;SDS011;64504;51.308;8.620;2023-04-24T10:36:32;0.43;;;0.40;;
75858;SDS011;64504;51.308;8.620;2023-04-24T10:39:00;0.40;;;0.40;;
75858;SDS011;64504;51.308;8.620;2023-04-24T10:41:27;0.22;;;0.22;;
75858;SDS011;64504;51.308;8.620;2023-04-24T10:46:35;0.30;;;0.30;;
75858;SDS011;64504;51.308;8.620;2023-04-24T10:49:04;0.43;;;0.40;;
75858;SDS011;64504;51.308;8.620;2023-04-24T10:51:48;0.30;;;0.30;;
75858;SDS011;64504;51.308;8.620;2023-04-24T10:54:25;0.40;;;0.40;;
75858;SDS011;64504;51.308;8.620;2023-04-24T10:56:51;0.50;;;0.50;;
75858;SDS011;64504;51.308;8.620;2023-04-24T10:59:24;0.40;;;0.40;;
75858;SDS011;64504;51.308;8.620;2023-04-24T11:01:54;0.32;;;0.32;;
75858;SDS011;64504;51.308;8.620;2023-04-24T11:04:30;0.30;;;0.30;;
75858;SDS011;64504;51.308;8.620;2023-04-24T11:06:56;0.85;;;0.40;;
75858;SDS011;64504;51.308;8.620;2023-04-24T11:09:22;0.57;;;0.57;;
75858;SDS011;64504;51.308;8.620;2023-04-24T11:11:51;0.30;;;0.30;;
75858;SDS011;64504;51.308;8.620;2023-04-24T11:14:29;1.05;;;0.60;;
75858;SDS011;64504;51.308;8.620;2023-04-24T11:16:54;1.10;;;0.93;;
75858;SDS011;64504;51.308;8.620;2023-04-24T11:19:24;1.65;;;0.57;;
75858;SDS011;64504;51.308;8.620;2023-04-24T11:22:01;2.35;;;0.80;;
75858;SDS011;64504;51.308;8.620;2023-04-24T11:27:13;0.63;;;0.50;;
75858;SDS011;64504;51.308;8.620;2023-04-24T11:32:41;0.32;;;0.32;;
75858;SDS011;64504;51.308;8.620;2023-04-24T11:35:14;0.30;;;0.30;;
75858;SDS011;64504;51.308;8.620;2023-04-24T11:37:47;3.30;;;0.80;;
75858;SDS011;64504;51.308;8.620;2023-04-24T11:40:15;0.30;;;0.30;;
75858;SDS011;64504;51.308;8.620;2023-04-24T11:42:45;1.27;;;0.75;;
75858;SDS011;64504;51.308;8.620;2023-04-24T11:45:13;0.30;;;0.30;;
75858;SDS011;64504;51.308;8.620;2023-04-24T11:47:39;0.60;;;0.60;;
75858;SDS011;64504;51.308;8.620;2023-04-24T11:50:06;0.40;;;0.40;;
75858;SDS011;64504;51.308;8.620;2023-04-24T11:52:33;2.53;;;0.38;;
75858;SDS011;64504;51.308;8.620;2023-04-24T11:55:03;0.50;;;0.50;;
75858;SDS011;64504;51.308;8.620;2023-04-24T11:57:28;0.20;;;0.20;;
75858;SDS011;64504;51.308;8.620;2023-04-24T11:59:59;0.43;;;0.43;;
75858;SDS011;64504;51.308;8.620;2023-04-24T12:02:25;0.70;;;0.60;;
75858;SDS011;64504;51.308;8.620;2023-04-24T12:04:55;0.75;;;0.75;;
75858;SDS011;64504;51.308;8.620;2023-04-24T12:07:21;0.45;;;0.45;;
75858;SDS011;64504;51.308;8.620;2023-04-24T12:09:49;0.85;;;0.28;;
75858;SDS011;64504;51.308;8.620;2023-04-24T12:12:21;0.40;;;0.40;;
75858;SDS011;64504;51.308;8.620;2023-04-24T12:14:52;0.38;;;0.38;;
75858;SDS011;64504;51.308;8.620;2023-04-24T12:17:23;0.40;;;0.40;;
75858;SDS011;64504;51.308;8.620;2023-04-24T12:19:50;0.43;;;0.40;;
75858;SDS011;64504;51.308;8.620;2023-04-24T12:22:17;0.50;;;0.50;;
75858;SDS011;64504;51.308;8.620;2023-04-24T12:24:58;1.80;;;0.55;;
75858;SDS011;64504;51.308;8.620;2023-04-24T12:27:26;0.50;;;0.50;;
75858;SDS011;64504;51.308;8.620;2023-04-24T12:29:55;0.30;;;0.30;;
75858;SDS011;64504;51.308;8.620;2023-04-24T12:32:21;0.43;;;0.43;;
75858;SDS011;64504;51.308;8.620;2023-04-24T12:34:46;1.08;;;1.00;;
75858;SDS011;64504;51.308;8.620;2023-04-24T12:37:12;1.05;;;0.65;;
75858;SDS011;64504;51.308;8.620;2023-04-24T12:39:38;1.75;;;0.98;;
75858;SDS011;64504;51.308;8.620;2023-04-24T12:42:03;1.08;;;1.00;;
75858;SDS011;64504;51.308;8.620;2023-04-24T12:44:34;0.85;;;0.85;;
75858;SDS011;64504;51.308;8.620;2023-04-24T12:47:08;1.27;;;0.93;;
75858;SDS011;64504;51.308;8.620;2023-04-24T12:49:35;0.73;;;0.73;;
75858;SDS011;64504;51.308;8.620;2023-04-24T12:52:07;0.98;;;0.98;;
75858;SDS011;64504;51.308;8.620;2023-04-24T12:54:35;1.52;;;1.40;;
75858;SDS011;64504;51.308;8.620;2023-04-24T12:57:00;1.08;;;1.08;;
75858;SDS011;64504;51.308;8.620;2023-04-24T12:59:26;1.35;;;1.25;;
75858;SDS011;64504;51.308;8.620;2023-04-24T13:01:52;1.40;;;1.30;;
75858;SDS011;64504;51.308;8.620;2023-04-24T13:04:17;1.67;;;1.38;;
75858;SDS011;64504;51.308;8.620;2023-04-24T13:06:43;4.00;;;2.65;;
75858;SDS011;64504;51.308;8.620;2023-04-24T13:09:09;2.25;;;2.15;;
75858;SDS011;64504;51.308;8.620;2023-04-24T13:11:35;5.65;;;2.92;;
75858;SDS011;64504;51.308;8.620;2023-04-24T13:14:01;4.05;;;3.75;;
75858;SDS011;64504;51.308;8.620;2023-04-24T13:16:27;3.42;;;3.10;;
75858;SDS011;64504;51.308;8.620;2023-04-24T13:18:52;8.32;;;4.35;;
75858;SDS011;64504;51.308;8.620;2023-04-24T13:21:17;4.40;;;4.00;;
75858;SDS011;64504;51.308;8.620;2023-04-24T13:23:43;5.45;;;4.65;;
75858;SDS011;64504;51.308;8.620;2023-04-24T13:26:08;12.60;;;4.97;;
75858;SDS011;64504;51.308;8.620;2023-04-24T13:28:34;5.38;;;4.88;;
75858;SDS011;64504;51.308;8.620;2023-04-24T13:31:00;6.85;;;4.32;;
75858;SDS011;64504;51.308;8.620;2023-04-24T13:33:26;6.80;;;5.90;;
75858;SDS011;64504;51.308;8.620;2023-04-24T13:35:51;5.03;;;4.57;;
75858;SDS011;64504;51.308;8.620;2023-04-24T13:38:17;5.97;;;4.40;;
75858;SDS011;64504;51.308;8.620;2023-04-24T13:40:42;5.15;;;4.65;;
75858;SDS011;64504;51.308;8.620;2023-04-24T13:43:07;5.65;;;4.57;;
75858;SDS011;64504;51.308;8.620;2023-04-24T13:45:35;6.00;;;3.83;;
75858;SDS011;64504;51.308;8.620;2023-04-24T13:48:00;5.75;;;4.65;;
75858;SDS011;64504;51.308;8.620;2023-04-24T13:50:29;6.90;;;4.15;;
75858;SDS011;64504;51.308;8.620;2023-04-24T13:52:54;7.57;;;4.22;;
75858;SDS011;64504;51.308;8.620;2023-04-24T13:55:21;4.40;;;3.97;;
75858;SDS011;64504;51.308;8.620;2023-04-24T13:57:47;8.63;;;5.25;;
75858;SDS011;64504;51.308;8.620;2023-04-24T14:00:13;6.75;;;5.93;;
75858;SDS011;64504;51.308;8.620;2023-04-24T14:02:39;6.35;;;4.63;;
75858;SDS011;64504;51.308;8.620;2023-04-24T14:05:06;10.70;;;6.40;;
75858;SDS011;64504;51.308;8.620;2023-04-24T14:07:32;5.72;;;4.82;;
75858;SDS011;64504;51.308;8.620;2023-04-24T14:09:58;7.22;;;4.82;;
75858;SDS011;64504;51.308;8.620;2023-04-24T14:12:23;7.47;;;5.40;;
75858;SDS011;64504;51.308;8.620;2023-04-24T14:14:49;16.73;;;5.55;;
75858;SDS011;64504;51.308;8.620;2023-04-24T14:17:14;6.63;;;5.13;;
75858;SDS011;64504;51.308;8.620;2023-04-24T14:19:40;6.78;;;4.20;;
75858;SDS011;64504;51.308;8.620;2023-04-24T14:22:05;9.40;;;5.00;;
75858;SDS011;64504;51.308;8.620;2023-04-24T14:24:33;5.25;;;4.75;;
75858;SDS011;64504;51.308;8.620;2023-04-24T14:26:58;6.40;;;4.32;;
75858;SDS011;64504;51.308;8.620;2023-04-24T14:29:24;6.90;;;4.90;;
75858;SDS011;64504;51.308;8.620;2023-04-24T14:31:51;8.52;;;3.95;;
75858;SDS011;64504;51.308;8.620;2023-04-24T14:34:16;9.80;;;5.07;;
75858;SDS011;64504;51.308;8.620;2023-04-24T14:36:42;10.15;;;5.60;;
75858;SDS011;64504;51.308;8.620;2023-04-24T14:39:07;4.88;;;4.00;;
75858;SDS011;64504;51.308;8.620;2023-04-24T14:41:34;5.00;;;4.38;;
75858;SDS011;64504;51.308;8.620;2023-04-24T14:44:01;6.60;;;4.30;;
75858;SDS011;64504;51.308;8.620;2023-04-24T14:46:29;4.38;;;3.95;;
75858;SDS011;64504;51.308;8.620;2023-04-24T14:48:55;7.85;;;4.43;;
75858;SDS011;64504;51.308;8.620;2023-04-24T14:51:22;3.97;;;3.67;;
75858;SDS011;64504;51.308;8.620;2023-04-24T14:53:47;3.80;;;3.38;;
75858;SDS011;64504;51.308;8.620;2023-04-24T14:56:14;3.83;;;3.50;;
75858;SDS011;64504;51.308;8.620;2023-04-24T14:58:40;7.82;;;3.92;;